Data for 03/20/2008

Time Sea-Level Adjusted Pressure Absolute Pressure Temperature Relative Humidity Dew Point   
(mb) (inHg) (mb) (inHg) (C) (F) (%) (C) (F)
00:05 1010 29.83 840 24.81 3 37.3 74 -1.3 29.7
00:10 1011 29.85 840 24.81 2.6 36.7 76 -1.2 29.9
00:15 1011 29.85 840 24.81 2.4 36.2 79 -1 30.3
00:20 1011 29.85 840 24.81 2.1 35.8 82 -0.7 30.8
00:25 1010 29.83 840 24.81 1.8 35.2 84 -0.6 30.9
00:30 1010 29.83 840 24.81 1.5 34.7 86 -0.5 31
00:35 1010 29.83 840 24.81 1.2 34.2 89 -0.4 31.3
00:40 1010 29.83 840 24.81 1.1 33.9 91 -0.3 31.5
00:45 1010 29.83 840 24.81 1 33.8 92 -0.2 31.6
00:50 1010 29.83 840 24.81 1 33.9 92 -0.1 31.8
00:55 1010 29.83 840 24.81 1.1 34 92 -0 32
01:00 1010 29.83 840 24.81 1.2 34.1 93 0.1 32.1
01:05 1010 29.83 840 24.81 1.2 34.2 93 0.2 32.3
01:10 1010 29.83 840 24.81 1.3 34.3 93 0.3 32.5
01:15 1010 29.83 840 24.81 1.4 34.6 93 0.4 32.7
01:20 1010 29.83 840 24.81 1.5 34.7 93 0.5 32.8
01:25 1011 29.85 840 24.81 1.5 34.8 93 0.5 32.9
01:30 1011 29.85 840 24.81 1.6 34.9 93 0.6 33
01:35 1011 29.85 840 24.81 1.6 34.9 93 0.6 33
01:40 1011 29.85 840 24.81 1.6 34.9 93 0.6 33.1
01:45 1011 29.85 840 24.81 1.6 34.8 93 0.6 33
01:50 1011 29.85 840 24.81 1.4 34.5 94 0.5 32.8
01:55 1011 29.85 840 24.81 1.3 34.4 94 0.4 32.7
02:00 1011 29.85 840 24.81 1.3 34.4 94 0.4 32.8
02:05 1011 29.85 840 24.81 1.3 34.4 94 0.5 32.9
02:10 1011 29.85 840 24.81 1.3 34.3 94 0.5 32.8
02:15 1011 29.85 840 24.81 1.3 34.4 94 0.5 32.9
02:20 1011 29.85 840 24.81 1.3 34.4 94 0.5 32.9
02:25 1011 29.85 840 24.81 1.3 34.3 95 0.5 33
02:30 1011 29.85 840 24.81 1.4 34.5 95 0.7 33.2
02:35 1011 29.85 840 24.81 1.4 34.5 95 0.7 33.2
02:40 1011 29.85 840 24.81 1.4 34.5 95 0.7 33.3
02:45 1011 29.85 840 24.81 1.4 34.5 96 0.8 33.4
02:50 1011 29.85 840 24.81 1.4 34.4 96 0.8 33.4
02:55 1011 29.85 840 24.81 1.3 34.3 96 0.7 33.3
03:00 1011 29.85 841 24.83 1.2 34.1 96 0.6 33.1
03:05 1011 29.85 841 24.83 0.6 33.1 96 0.1 32.2
03:10 1012 29.88 841 24.83 0.2 32.3 97 -0.2 31.6
03:15 1012 29.88 841 24.83 -0.2 31.7 98 -0.5 31.1
03:20 1012 29.88 841 24.83 -0.3 31.4 98 -0.6 31
03:25 1012 29.88 841 24.83 -0.4 31.3 99 -0.6 31
03:30 1012 29.88 841 24.83 -0.5 31.2 99 -0.6 31
03:35 1012 29.88 841 24.83 -0.4 31.2 99 -0.5 31.1
03:40 1012 29.88 841 24.83 -0.4 31.3 99 -0.5 31.1
03:45 1012 29.88 841 24.83 -0.4 31.3 100 -0.5 31.2
03:50 1012 29.88 841 24.83 -0.4 31.2 100 -0.5 31.2
03:55 1012 29.88 841 24.83 -0.4 31.2 100 -0.5 31.2
04:00 1012 29.88 841 24.83 -0.4 31.2 100 -0.5 31.2
04:05 1012 29.88 841 24.83 -0.7 30.8 100 -0.7 30.8
04:10 1012 29.88 841 24.83 -0.8 30.6 100 -0.8 30.6
04:15 1012 29.88 841 24.83 -0.8 30.5 100 -0.8 30.5
04:20 1012 29.88 841 24.83 -0.9 30.5 164 6.1 42.9
04:25 1012 29.88 841 24.83 -0.9 30.3 164 6 42.8
04:30 1012 29.88 841 24.83 -1 30.3 164 6 42.8
04:35 1012 29.88 841 24.83 -0.9 30.3 164 6 42.8
04:40 1012 29.88 841 24.83 -1 30.2 164 5.9 42.7
04:45 1012 29.88 841 24.83 -1 30.2 164 6 42.7
04:50 1012 29.88 841 24.83 -1.1 30 164 5.9 42.5
04:55 1012 29.88 841 24.83 -1.1 30 164 5.9 42.5
05:00 1012 29.88 841 24.83 -1.1 30 164 5.9 42.5
05:05 1012 29.88 841 24.83 -1.1 30.1 164 5.9 42.6
05:10 1012 29.88 841 24.83 -1 30.2 164 5.9 42.7
05:15 1012 29.88 841 24.83 -1 30.2 164 6 42.7
05:20 1012 29.88 842 24.86 -1 30.3 164 6 42.8
05:25 1012 29.88 842 24.86 -1 30.3 164 6 42.8
05:30 1012 29.88 842 24.86 -0.9 30.4 164 6.1 42.9
05:35 1013 29.91 842 24.86 -0.8 30.5 164 6.1 43.1
05:40 1012 29.88 842 24.86 -0.6 30.8 164 6.3 43.4
05:45 1013 29.91 842 24.86 -0.6 30.9 164 6.4 43.5
05:50 1013 29.91 842 24.86 -0.5 31.1 164 6.5 43.6
05:55 1013 29.91 842 24.86 -0.5 31 164 6.4 43.6
06:00 1013 29.91 842 24.86 -0.4 31.3 164 6.6 43.8
06:05 1013 29.91 842 24.86 -0.2 31.6 164 6.8 44.2
06:10 1013 29.91 842 24.86 -0.6 31 164 6.4 43.5
06:15 1013 29.91 842 24.86 -0.6 31 164 6.4 43.5
06:20 1013 29.91 842 24.86 -0.9 30.4 164 6.1 43
06:25 1013 29.91 842 24.86 -1 30.2 164 6 42.7
06:30 1013 29.91 842 24.86 -1 30.2 164 6 42.7
06:35 1013 29.91 843 24.89 -0.8 30.5 164 6.1 43
06:40 1013 29.91 843 24.89 -0.8 30.5 164 6.1 43.1
06:45 1013 29.91 843 24.89 -0.7 30.7 164 6.2 43.2
06:50 1013 29.91 843 24.89 -0.8 30.5 164 6.1 43.1
06:55 1013 29.91 843 24.89 -0.7 30.8 164 6.3 43.3
07:00 1014 29.94 843 24.89 -0.7 30.7 164 6.2 43.2
07:05 1014 29.94 843 24.89 -0.7 30.7 164 6.2 43.2
07:10 1014 29.94 843 24.89 -0.6 30.8 164 6.3 43.4
07:15 1014 29.94 843 24.89 -0.6 31 164 6.4 43.5
07:20 1014 29.94 843 24.89 -0.5 31 164 6.4 43.6
07:25 1014 29.94 843 24.89 -0.5 31.1 164 6.5 43.7
07:30 1014 29.94 843 24.89 -0.5 31.1 164 6.5 43.6
07:35 1014 29.94 843 24.89 -0.5 31.1 164 6.5 43.7
07:40 1014 29.94 843 24.89 -0.4 31.3 164 6.6 43.9
07:45 1014 29.94 843 24.89 -0.3 31.5 164 6.7 44
07:50 1014 29.94 843 24.89 -0.6 30.9 164 6.4 43.5
07:55 1014 29.94 843 24.89 -0.8 30.6 164 6.2 43.2
08:00 1014 29.94 844 24.92 -0.7 30.7 164 6.2 43.2
08:05 1014 29.94 844 24.92 -0.8 30.6 164 6.2 43.1
08:10 1014 29.94 844 24.92 -0.9 30.4 164 6.1 43
08:15 1014 29.94 844 24.92 -0.9 30.4 164 6 42.9
08:20 1015 29.97 844 24.92 -0.7 30.7 164 6.2 43.2
08:25 1015 29.97 844 24.92 -0.7 30.7 164 6.3 43.3
08:30 1015 29.97 844 24.92 -0.6 30.9 164 6.3 43.4
08:35 1015 29.97 844 24.92 -0.6 30.8 164 6.3 43.4
08:40 1015 29.97 844 24.92 -0.6 30.9 164 6.4 43.5
08:45 1015 29.97 844 24.92 -0.6 30.9 164 6.4 43.5
08:50 1015 29.97 844 24.92 -0.6 30.9 164 6.4 43.4
08:55 1015 29.97 844 24.92 -0.5 31.1 164 6.5 43.6
09:00 1015 29.97 844 24.92 -0.4 31.3 164 6.6 43.9
09:05 1015 29.97 844 24.92 -0.3 31.4 164 6.7 44
09:10 1015 29.97 844 24.92 -0.1 31.8 164 6.9 44.4
09:15 1015 29.97 844 24.92 -0.2 31.6 164 6.8 44.2
09:20 1015 29.97 844 24.92 -0.4 31.2 164 6.6 43.8
09:25 1015 29.97 844 24.92 -0.4 31.3 164 6.6 43.9
09:30 1015 29.97 844 24.92 -0.4 31.2 164 6.5 43.7
09:35 1015 29.97 844 24.92 -0.5 31 164 6.4 43.6
09:40 1015 29.97 844 24.92 -0.5 31.2 164 6.5 43.7
09:45 1015 29.97 844 24.92 -0.3 31.4 164 6.6 44
09:50 1015 29.97 844 24.92 -0.3 31.4 164 6.7 44
09:55 1015 29.97 844 24.92 -0.4 31.3 164 6.6 43.9
10:00 1015 29.97 845 24.95 -0.3 31.4 164 6.7 44
10:05 1015 29.97 845 24.95 -0.3 31.4 164 6.6 44
10:10 1015 29.97 845 24.95 -0.4 31.2 164 6.6 43.8
10:15 1015 29.97 845 24.95 -0.6 30.9 164 6.4 43.5
10:20 1016 30 845 24.95 -0.6 30.9 164 6.4 43.5
10:25 1016 30 845 24.95 -0.5 31.1 164 6.5 43.7
10:30 1016 30 845 24.95 -0.3 31.4 164 6.7 44
10:35 1016 30 845 24.95 0 32 164 7 44.6
10:40 1016 30 845 24.95 0.4 32.6 164 7.4 45.3
10:45 1016 30 845 24.95 0.4 32.7 164 7.4 45.3
10:50 1016 30 845 24.95 0.3 32.5 164 7.3 45.2
10:55 1016 30 845 24.95 0.6 33.1 164 7.6 45.8
11:00 1016 30 845 24.95 0.7 33.3 164 7.8 46
11:05 1016 30 845 24.95 0.4 32.8 164 7.5 45.4
11:10 1016 30 845 24.95 0 32.1 164 7 44.7
11:15 1016 30 845 24.95 -0.5 31 164 6.5 43.6
11:20 1016 30 845 24.95 -0.4 31.3 164 6.6 43.9
11:25 1016 30 846 24.98 -0.4 31.2 164 6.6 43.8
11:30 1016 30 846 24.98 -0.2 31.6 164 6.8 44.2
11:35 1016 30 846 24.98 0.1 32.2 164 7.2 44.9
11:40 1016 30 846 24.98 -0.2 31.6 164 6.8 44.2
11:45 1016 30 846 24.98 -0.4 31.3 164 6.6 43.9
11:50 1017 30.03 846 24.98 -0.7 30.8 164 6.3 43.4
11:55 1017 30.03 846 24.98 -0.5 31.1 164 6.5 43.6
12:00 1017 30.03 846 24.98 -0.4 31.4 164 6.6 44
12:05 1017 30.03 846 24.98 -0.1 31.8 164 6.9 44.4
12:10 1017 30.03 846 24.98 -0.3 31.4 164 6.7 44
12:15 1017 30.03 846 24.98 -0.4 31.4 164 6.6 43.9
12:20 1017 30.03 846 24.98 -0.1 31.8 164 6.9 44.4
12:25 1017 30.03 846 24.98 -0.2 31.6 164 6.8 44.2
12:30 1017 30.03 846 24.98 -0.2 31.7 164 6.8 44.3
12:35 1017 30.03 846 24.98 -0.2 31.6 164 6.8 44.3
12:40 1017 30.03 846 24.98 -0.4 31.3 164 6.6 43.9
12:45 1017 30.03 846 24.98 -0.6 30.9 164 6.4 43.5
12:50 1017 30.03 846 24.98 -0.5 31.1 164 6.5 43.7
12:55 1017 30.03 846 24.98 -0.4 31.2 164 6.5 43.8
13:00 1017 30.03 846 24.98 -0.3 31.5 113 1.4 34.6
13:05 1017 30.03 846 24.98 -0.3 31.5 86 -2.4 27.7
13:10 1017 30.03 846 24.98 0.1 32.2 84 -2.4 27.7
13:15 1017 30.03 846 24.98 0 32 83 -2.6 27.3
13:20 1017 30.03 846 24.98 0.1 32.2 82 -2.6 27.3
13:25 1017 30.03 846 24.98 0.3 32.6 81 -2.6 27.4
13:30 1017 30.03 846 24.98 0.3 32.6 79 -2.9 26.8
13:35 1017 30.03 846 24.98 0.3 32.5 79 -2.9 26.8
13:40 1017 30.03 846 24.98 0.2 32.4 78 -3.2 26.3
13:45 1017 30.03 846 24.98 0.4 32.6 80 -2.8 27
13:50 1017 30.03 847 25.01 0.6 33.2 78 -2.7 27.1
13:55 1017 30.03 847 25.01 1.4 34.6 79 -1.8 28.7
14:00 1017 30.03 847 25.01 1.1 34 82 -1.6 29.1
14:05 1017 30.03 846 24.98 1.1 34 81 -1.8 28.7
14:10 1017 30.03 846 24.98 1.7 35.1 78 -1.8 28.8
14:15 1017 30.03 846 24.98 1.8 35.2 77 -1.8 28.8
14:20 1017 30.03 846 24.98 2 35.7 76 -1.8 28.7
14:25 1017 30.03 846 24.98 1.9 35.4 74 -2.2 28
14:30 1017 30.03 846 24.98 1.6 34.9 74 -2.5 27.5
14:35 1017 30.03 846 24.98 2.6 36.7 72 -2 28.4
14:40 1017 30.03 846 24.98 3.2 37.8 70 -1.8 28.8
14:45 1017 30.03 846 24.98 4 39.3 64 -2.1 28.2
14:50 1017 30.03 846 24.98 3.8 38.8 63 -2.7 27.1
14:55 1017 30.03 846 24.98 3.2 37.8 63 -3.1 26.3
15:00 1017 30.03 846 24.98 3 37.4 62 -3.6 25.6
15:05 1017 30.03 846 24.98 2.7 36.9 58 -4.6 23.7
15:10 1017 30.03 846 24.98 2.3 36.1 58 -5.1 22.8
15:15 1017 30.03 846 24.98 1.9 35.4 61 -4.9 23.2
15:20 1017 30.03 846 24.98 2.2 36 58 -5.2 22.7
15:25 1017 30.03 846 24.98 2.2 36 58 -5.2 22.6
15:30 1017 30.03 846 24.98 1.5 34.8 59 -5.6 22
15:35 1017 30.03 846 24.98 1.5 34.7 59 -5.7 21.8
15:40 1017 30.03 846 24.98 1.7 35 56 -6.1 21
15:45 1017 30.03 846 24.98 2.4 36.3 51 -6.6 20.1
15:50 1017 30.03 846 24.98 3 37.5 51 -6.1 21.1
15:55 1017 30.03 846 24.98 3.2 37.7 50 -6.3 20.6
16:00 1017 30.03 846 24.98 3.2 37.8 49 -6.6 20.1
16:05 1017 30.03 846 24.98 3.1 37.7 45 -7.8 18
16:10 1017 30.03 846 24.98 3.6 38.5 42 -8.1 17.4
16:15 1017 30.03 846 24.98 4 39.3 41 -8.1 17.4
16:20 1017 30.03 846 24.98 4.2 39.5 42 -7.6 18.4
16:25 1017 30.03 846 24.98 3.9 39 46 -6.8 19.8
16:30 1017 30.03 846 24.98 3.9 39.1 46 -6.5 20.3
16:35 1017 30.03 846 24.98 3.7 38.7 47 -6.5 20.4
16:40 1017 30.03 846 24.98 3.3 37.9 50 -6.1 21
16:45 1017 30.03 846 24.98 3.1 37.6 51 -6.1 21
16:50 1017 30.03 846 24.98 3.3 37.9 50 -6.1 21.1
16:55 1017 30.03 846 24.98 3.2 37.8 51 -5.9 21.3
17:00 1017 30.03 846 24.98 3.3 37.9 52 -5.6 22
17:05 1017 30.03 846 24.98 2.9 37.2 53 -5.6 21.9
17:10 1017 30.03 846 24.98 3 37.5 52 -5.8 21.6
17:15 1017 30.03 846 24.98 2.8 37.1 53 -5.9 21.4
17:20 1017 30.03 847 25.01 2.7 36.8 53 -6 21.1
17:25 1017 30.03 847 25.01 2.7 36.9 53 -5.9 21.4
17:30 1017 30.03 847 25.01 2.5 36.5 55 -5.5 22.1
17:35 1017 30.03 847 25.01 2.5 36.4 56 -5.4 22.3
17:40 1017 30.03 847 25.01 2.5 36.5 54 -5.9 21.3
17:45 1017 30.03 847 25.01 2.3 36.1 54 -6.1 21
17:50 1017 30.03 847 25.01 2.3 36.1 57 -5.5 22.2
17:55 1017 30.03 847 25.01 2.2 36 53 -6.5 20.3
18:00 1017 30.03 847 25.01 2.9 37.2 49 -6.9 19.6
18:05 1017 30.03 847 25.01 3.4 38.1 48 -6.6 20.1
18:10 1017 30.03 847 25.01 3.4 38.1 49 -6.3 20.7
18:15 1017 30.03 847 25.01 2.3 36.1 54 -6.1 21
18:20 1017 30.03 847 25.01 2.3 36.1 53 -6.3 20.6
18:25 1017 30.03 847 25.01 2.2 35.9 48 -7.6 18.3
18:30 1017 30.03 847 25.01 2.4 36.3 48 -7.5 18.6
18:35 1017 30.03 847 25.01 2.5 36.5 49 -7.2 19.1
18:40 1017 30.03 847 25.01 2.7 36.9 49 -7 19.5
18:45 1017 30.03 847 25.01 2.5 36.5 48 -7.3 18.9
18:50 1017 30.03 847 25.01 2.1 35.7 53 -6.5 20.3
18:55 1017 30.03 847 25.01 1.7 35.1 56 -6.2 20.8
19:00 1017 30.03 847 25.01 1.5 34.7 57 -6.1 21
19:05 1017 30.03 847 25.01 1.1 34.1 56 -6.6 20.1
19:10 1017 30.03 847 25.01 1.2 34.1 55 -6.9 19.6
19:15 1017 30.03 847 25.01 1.2 34.1 55 -6.8 19.7
19:20 1017 30.03 847 25.01 1 33.8 56 -6.9 19.6
19:25 1017 30.03 847 25.01 0.9 33.7 57 -6.7 20
19:30 1018 30.06 847 25.01 0.8 33.4 58 -6.6 20.2
19:35 1018 30.06 847 25.01 0.7 33.2 60 -6.2 20.8
19:40 1018 30.06 847 25.01 0.5 33 64 -5.6 21.9
19:45 1018 30.06 847 25.01 0.3 32.6 66 -5.2 22.7
19:50 1018 30.06 847 25.01 0.2 32.3 67 -5.3 22.4
19:55 1018 30.06 847 25.01 0.3 32.6 66 -5.3 22.4
20:00 1018 30.06 847 25.01 0.5 32.8 66 -5.2 22.6
20:05 1018 30.06 847 25.01 0.5 32.9 67 -5 22.9
20:10 1018 30.06 847 25.01 0.1 32.2 68 -5.2 22.7
20:15 1018 30.06 847 25.01 -0 31.9 67 -5.3 22.4
20:20 1018 30.06 847 25.01 0.2 32.3 66 -5.5 22.1
20:25 1018 30.06 847 25.01 0.4 32.7 64 -5.6 22
20:30 1018 30.06 847 25.01 -0 31.9 69 -5 22.9
20:35 1018 30.06 847 25.01 -0.8 30.6 72 -5.2 22.7
20:40 1018 30.06 847 25.01 -1 30.2 73 -5.2 22.6
20:45 1018 30.06 847 25.01 -1 30.2 72 -5.4 22.2
20:50 1018 30.06 847 25.01 -1 30.2 73 -5.3 22.4
20:55 1018 30.06 847 25.01 -1.1 30.1 74 -5.1 22.8
21:00 1018 30.06 847 25.01 -1.2 29.8 73 -5.4 22.3
21:05 1018 30.06 847 25.01 -1.1 30 72 -5.5 22.1
21:10 1018 30.06 847 25.01 -1 30.1 72 -5.5 22.1
21:15 1018 30.06 847 25.01 -1 30.2 73 -5.3 22.4
21:20 1018 30.06 847 25.01 -1 30.2 73 -5.3 22.4
21:25 1018 30.06 847 25.01 -1.1 30.1 72 -5.5 22.1
21:30 1018 30.06 847 25.01 -1.1 30 72 -5.5 22
21:35 1018 30.06 847 25.01 -1.2 29.8 71 -5.8 21.6
21:40 1018 30.06 847 25.01 -1.5 29.4 69 -6.4 20.5
21:45 1018 30.06 847 25.01 -1.5 29.3 68 -6.6 20.1
21:50 1018 30.06 847 25.01 -1.6 29.2 68 -6.7 20
21:55 1018 30.06 847 25.01 -1.6 29.1 69 -6.7 20
22:00 1018 30.06 847 25.01 -1.6 29.1 70 -6.5 20.3
22:05 1018 30.06 847 25.01 -1.7 28.9 71 -6.4 20.6
22:10 1018 30.06 847 25.01 -1.8 28.8 72 -6.2 20.9
22:15 1018 30.06 847 25.01 -1.9 28.6 73 -6.1 20.9
22:20 1018 30.06 847 25.01 -1.8 28.7 72 -6.2 20.9
22:25 1018 30.06 847 25.01 -1.7 29 71 -6.2 20.9
22:30 1018 30.06 847 25.01 -1.6 29.2 72 -6 21.2
22:35 1018 30.06 847 25.01 -1.6 29.2 71 -6.1 21
22:40 1018 30.06 847 25.01 -1.5 29.2 71 -6.1 21
22:45 1018 30.06 847 25.01 -1.5 29.3 70 -6.2 20.8
22:50 1018 30.06 847 25.01 -1.3 29.6 70 -6.1 21
22:55 1018 30.06 847 25.01 -1.4 29.5 71 -6 21.2
23:00 1018 30.06 847 25.01 -1.6 29.1 71 -6.2 20.9
23:05 1018 30.06 847 25.01 -1.6 29.2 71 -6.1 20.9
23:10 1018 30.06 847 25.01 -1.6 29.1 72 -6.1 21.1
23:15 1018 30.06 847 25.01 -1.7 29 72 -6.1 21
23:20 1018 30.06 847 25.01 -1.7 28.9 72 -6.1 21
23:25 1018 30.06 847 25.01 -1.7 28.9 73 -6 21.2
23:30 1018 30.06 847 25.01 -1.7 29 72 -6 21.2
23:35 1018 30.06 847 25.01 -1.7 29 72 -6.1 20.9
23:40 1018 30.06 847 25.01 -1.6 29.1 72 -6 21.2
23:45 1018 30.06 847 25.01 -1.6 29.1 72 -6 21.1
23:50 1018 30.06 847 25.01 -1.5 29.4 71 -6 21.2
23:55 1018 30.06 847 25.01 -1.4 29.5 71 -5.9 21.3
24:00 1018 30.06 847 25.01 -1.5 29.3 72 -5.9 21.4